Terminal Aerodrome Forecast
Issued by NWS

Home | Current Version | Previous Version | Text Only | Print | Product List | Glossary Off
Versions: 1 2 3 4 5 6 7 8 9 10 11 12 13

000
FTUS41 KCLE 192335
TAFFDY
TAF
KFDY 192335Z 2000/2024 26006KT P6SM SCT250
     FM200700 VRB03KT P6SM SKC
     FM201600 19006KT P6SM SKC=

USA.gov is the U.S. government's official web portal to all federal, state and local government web resources and services.